createdAt,value
2018-02-13T00:00:49.598Z,6.77
2018-02-13T00:03:20.431Z,6.63
2018-02-13T00:05:51.324Z,6.13
2018-02-13T00:08:22.073Z,6.43
2018-02-13T00:10:52.928Z,6.90
2018-02-13T00:13:23.741Z,6.80
2018-02-13T00:15:54.581Z,6.73
2018-02-13T00:18:25.393Z,7.23
2018-02-13T00:20:56.222Z,6.60
2018-02-13T00:23:27.043Z,6.03
2018-02-13T00:25:57.903Z,6.37
2018-02-13T00:28:28.716Z,7.40
2018-02-13T00:30:59.593Z,6.83
2018-02-13T00:33:30.465Z,7.50
2018-02-13T00:36:01.245Z,7.30
2018-02-13T00:38:32.081Z,6.17
2018-02-13T00:41:02.925Z,6.33
2018-02-13T00:43:33.762Z,7.30
2018-02-13T00:46:04.606Z,6.70
2018-02-13T00:48:35.429Z,6.43
2018-02-13T00:51:06.365Z,6.70
2018-02-13T00:53:37.207Z,6.40
2018-02-13T00:56:08.027Z,6.43
2018-02-13T00:58:38.896Z,7.60
2018-02-13T01:01:09.813Z,6.93
2018-02-13T01:03:40.651Z,6.10
2018-02-13T01:06:11.547Z,7.40
2018-02-13T01:08:42.421Z,7.17
2018-02-13T01:11:13.233Z,7.73
2018-02-13T01:13:44.105Z,7.40
2018-02-13T01:16:14.942Z,7.47
2018-02-13T01:18:45.781Z,7.70
2018-02-13T01:21:16.722Z,6.50
2018-02-13T01:23:47.573Z,7.37
2018-02-13T01:26:18.434Z,8.00
2018-02-13T01:28:49.242Z,6.90
2018-02-13T01:31:20.186Z,7.10
2018-02-13T01:33:51.020Z,6.97
2018-02-13T01:36:21.891Z,6.90
2018-02-13T01:38:52.731Z,7.70
2018-02-13T01:41:23.611Z,7.43
2018-02-13T01:43:54.446Z,7.20
2018-02-13T01:46:25.331Z,7.43
2018-02-13T01:48:56.173Z,7.70
2018-02-13T01:51:26.994Z,7.87
2018-02-13T01:53:57.875Z,7.70
2018-02-13T01:56:28.783Z,7.17
2018-02-13T01:58:59.596Z,7.57
2018-02-13T02:01:30.439Z,7.63
2018-02-13T02:04:01.300Z,6.37
2018-02-13T02:06:32.153Z,7.50
2018-02-13T02:09:03.093Z,6.70
2018-02-13T02:11:33.959Z,6.47
2018-02-13T02:14:04.800Z,7.43
2018-02-13T02:16:35.829Z,6.47
2018-02-13T02:19:06.770Z,6.30
2018-02-13T02:21:37.614Z,6.97
2018-02-13T02:24:08.473Z,6.97
2018-02-13T02:26:40.286Z,7.07
2018-02-13T02:29:11.114Z,6.40
2018-02-13T02:31:41.958Z,7.07
2018-02-13T02:34:14.144Z,8.53
2018-02-13T02:36:45.778Z,8.20
2018-02-13T02:39:16.594Z,7.70
2018-02-13T02:41:47.482Z,8.20
2018-02-13T02:44:22.097Z,7.90
2018-02-13T02:46:53.279Z,7.47
2018-02-13T02:49:24.283Z,7.62
2018-02-13T02:51:55.130Z,8.07
2018-02-13T02:54:25.961Z,6.97
2018-02-13T02:56:56.807Z,6.67
2018-02-13T02:59:27.608Z,7.23
2018-02-13T03:01:58.536Z,8.17
2018-02-13T03:04:29.432Z,6.97
2018-02-13T03:07:00.326Z,7.07
2018-02-13T03:09:31.140Z,6.90
2018-02-13T03:12:02.009Z,7.00
2018-02-13T03:14:32.833Z,7.60
2018-02-13T03:17:03.838Z,7.17
2018-02-13T03:19:34.658Z,6.75
2018-02-13T03:22:05.701Z,7.40
2018-02-13T03:24:36.487Z,7.32
2018-02-13T03:27:07.332Z,6.47
2018-02-13T03:29:38.151Z,6.77
2018-02-13T03:32:08.996Z,8.07
2018-02-13T03:34:39.830Z,7.40
2018-02-13T03:37:10.669Z,7.40
2018-02-13T03:39:41.468Z,7.73
2018-02-13T03:42:12.396Z,8.17
2018-02-13T03:44:43.253Z,7.43
2018-02-13T03:47:14.073Z,7.30
2018-02-13T03:49:44.893Z,7.43
2018-02-13T03:52:15.769Z,7.40
2018-02-13T03:54:46.643Z,7.90
2018-02-13T03:57:17.507Z,8.77
2018-02-13T03:59:48.390Z,7.20
2018-02-13T04:02:19.259Z,8.13
2018-02-13T04:04:50.089Z,8.83
2018-02-13T04:07:20.909Z,7.53
2018-02-13T04:09:51.728Z,8.47
2018-02-13T04:12:22.608Z,7.13
2018-02-13T04:14:53.434Z,8.80
2018-02-13T04:17:24.366Z,11.03
2018-02-13T04:19:55.211Z,9.93
2018-02-13T04:22:26.074Z,8.27
2018-02-13T04:24:56.912Z,8.43
2018-02-13T04:27:27.842Z,9.63
2018-02-13T04:29:58.641Z,8.00
2018-02-13T04:32:29.559Z,9.00
2018-02-13T04:35:00.398Z,9.13
2018-02-13T04:37:31.285Z,9.33
2018-02-13T04:40:02.154Z,9.77
2018-02-13T04:42:32.987Z,9.60
2018-02-13T04:45:03.851Z,8.40
2018-02-13T04:47:34.745Z,9.40
2018-02-13T04:50:05.616Z,9.67
2018-02-13T04:52:36.488Z,8.83
2018-02-13T04:55:07.330Z,9.40
2018-02-13T04:57:44.984Z,8.90
2018-02-13T05:00:15.862Z,8.93
2018-02-13T05:02:46.718Z,8.33
2018-02-13T05:05:17.539Z,9.30
2018-02-13T05:07:48.447Z,8.97
2018-02-13T05:10:19.315Z,11.03
2018-02-13T05:12:50.222Z,10.67
2018-02-13T05:15:20.995Z,9.57
2018-02-13T05:17:51.831Z,9.43
2018-02-13T05:20:22.697Z,9.83
2018-02-13T05:22:53.553Z,10.10
2018-02-13T05:25:24.360Z,9.80
2018-02-13T05:27:55.193Z,10.67
2018-02-13T05:30:26.014Z,10.67
2018-02-13T05:32:56.861Z,9.13
2018-02-13T05:35:27.747Z,9.23
2018-02-13T05:37:58.593Z,8.87
2018-02-13T05:40:36.361Z,8.90
2018-02-13T05:43:07.259Z,11.93
2018-02-13T05:45:38.070Z,10.60
2018-02-13T05:48:08.932Z,10.17
2018-02-13T05:50:39.780Z,10.00
2018-02-13T05:53:10.629Z,10.77
2018-02-13T05:55:41.452Z,10.53
2018-02-13T05:58:12.271Z,11.70
2018-02-13T06:00:43.115Z,10.87
2018-02-13T06:03:13.968Z,9.80
2018-02-13T06:05:44.785Z,10.10
2018-02-13T06:08:15.626Z,9.60
2018-02-13T06:10:46.536Z,9.80
2018-02-13T06:13:17.392Z,10.77
2018-02-13T06:15:48.231Z,10.40
2018-02-13T06:18:19.106Z,9.73
2018-02-13T06:20:49.968Z,10.10
2018-02-13T06:23:20.758Z,10.60
2018-02-13T06:25:51.574Z,10.27
2018-02-13T06:28:22.408Z,11.67
2018-02-13T06:30:53.245Z,10.70
2018-02-13T06:33:24.082Z,9.37
2018-02-13T06:35:54.932Z,9.17
2018-02-13T06:38:25.860Z,11.23
2018-02-13T06:40:56.834Z,11.63
2018-02-13T06:43:27.673Z,11.03
2018-02-13T06:45:58.520Z,10.63
2018-02-13T06:48:29.363Z,10.40
2018-02-13T06:51:00.197Z,10.77
2018-02-13T06:53:31.061Z,11.13
2018-02-13T06:56:01.859Z,11.13
2018-02-13T06:58:32.774Z,9.50
2018-02-13T07:01:03.610Z,12.60
2018-02-13T07:03:34.460Z,11.93
2018-02-13T07:06:05.309Z,11.63
2018-02-13T07:08:36.206Z,12.13
2018-02-13T07:11:07.073Z,11.27
2018-02-13T07:13:37.955Z,11.63
2018-02-13T07:16:08.827Z,12.17
2018-02-13T07:18:39.795Z,11.00
2018-02-13T07:21:10.649Z,11.80
2018-02-13T07:23:41.565Z,11.83
2018-02-13T07:26:12.391Z,10.93
2018-02-13T07:28:43.303Z,11.03
2018-02-13T07:31:14.172Z,10.77
2018-02-13T07:33:45.001Z,11.30
2018-02-13T07:36:15.926Z,10.90
2018-02-13T07:38:46.855Z,11.97
2018-02-13T07:41:17.723Z,11.90
2018-02-13T07:43:48.579Z,9.60
2018-02-13T07:46:19.407Z,12.23
2018-02-13T07:48:50.273Z,11.80
2018-02-13T07:51:21.999Z,11.10
2018-02-13T07:53:52.970Z,11.43
2018-02-13T07:56:23.864Z,10.90
2018-02-13T07:58:55.529Z,10.80
2018-02-13T08:01:26.394Z,11.43
2018-02-13T08:03:57.260Z,11.30
2018-02-13T08:06:28.129Z,11.60
2018-02-13T08:08:58.977Z,10.90
2018-02-13T08:11:29.806Z,11.17
2018-02-13T08:14:00.656Z,10.77
2018-02-13T08:16:31.578Z,10.23
2018-02-13T08:19:02.494Z,10.60
2018-02-13T08:21:33.498Z,9.37
2018-02-13T08:24:04.516Z,10.82
2018-02-13T08:26:35.457Z,10.85
2018-02-13T08:29:06.369Z,11.20
2018-02-13T08:31:38.306Z,10.03
2018-02-13T08:34:09.175Z,9.27
2018-02-13T08:36:39.992Z,9.97
2018-02-13T08:39:10.857Z,9.60
2018-02-13T08:41:41.694Z,10.10
2018-02-13T08:44:12.555Z,11.20
2018-02-13T08:46:43.392Z,10.40
2018-02-13T08:49:14.271Z,10.90
2018-02-13T08:51:45.101Z,11.97
2018-02-13T08:54:16.180Z,10.00
2018-02-13T08:56:47.037Z,12.05
2018-02-13T08:59:17.921Z,12.23
2018-02-13T09:01:48.764Z,12.80
2018-02-13T09:04:19.658Z,13.17
2018-02-13T09:06:50.540Z,11.53
2018-02-13T09:09:21.394Z,12.30
2018-02-13T09:11:52.357Z,13.83
2018-02-13T09:14:23.192Z,11.80
2018-02-13T09:16:54.047Z,12.17
2018-02-13T09:19:24.940Z,10.60
2018-02-13T09:21:55.756Z,10.90
2018-02-13T09:24:26.650Z,11.47
2018-02-13T09:26:57.552Z,11.20
2018-02-13T09:29:28.396Z,10.90
2018-02-13T09:31:59.302Z,11.40
2018-02-13T09:34:30.243Z,10.23
2018-02-13T09:37:01.109Z,9.00
2018-02-13T09:39:31.943Z,9.60
2018-02-13T09:42:02.850Z,10.63
2018-02-13T09:44:33.821Z,10.13
2018-02-13T09:47:04.863Z,9.10
2018-02-13T09:49:35.736Z,10.30
2018-02-13T09:52:06.687Z,11.10
2018-02-13T09:54:37.659Z,11.07
2018-02-13T09:57:08.622Z,10.13
2018-02-13T09:59:39.542Z,10.93
2018-02-13T10:02:10.412Z,10.23
2018-02-13T10:04:41.337Z,10.37
2018-02-13T10:07:12.321Z,10.60
2018-02-13T10:09:43.187Z,9.15
2018-02-13T10:12:14.057Z,8.37
2018-02-13T10:14:44.960Z,8.87
2018-02-13T10:17:17.980Z,8.90
2018-02-13T10:19:50.960Z,8.68
2018-02-13T10:22:21.941Z,9.52
2018-02-13T10:24:53.902Z,7.75
2018-02-13T10:27:24.845Z,7.72
2018-02-13T10:29:55.709Z,8.30
2018-02-13T10:32:26.598Z,8.60
2018-02-13T10:34:57.593Z,8.20
2018-02-13T10:37:28.546Z,9.35
2018-02-13T10:39:59.345Z,7.70
2018-02-13T10:42:31.288Z,8.40
2018-02-13T10:45:02.292Z,7.93
2018-02-13T10:47:33.330Z,8.17
2018-02-13T10:50:04.258Z,8.40
2018-02-13T10:52:35.156Z,43.53
2018-02-13T10:55:06.035Z,8.40
2018-02-13T10:57:36.875Z,9.40
2018-02-13T11:00:07.762Z,8.70
2018-02-13T11:02:38.639Z,8.87
2018-02-13T11:05:09.503Z,8.77
2018-02-13T11:07:41.138Z,9.25
2018-02-13T11:10:11.997Z,8.20
2018-02-13T11:12:42.881Z,9.40
2018-02-13T11:15:13.741Z,9.90
2018-02-13T11:17:44.682Z,10.87
2018-02-13T11:20:15.619Z,9.70
2018-02-13T11:22:46.511Z,8.43
2018-02-13T11:25:17.329Z,9.10
2018-02-13T11:27:48.137Z,10.00
2018-02-13T11:30:19.952Z,9.23
2018-02-13T11:32:50.872Z,7.60
2018-02-13T11:35:22.818Z,7.53
2018-02-13T11:37:53.663Z,7.30
2018-02-13T11:40:25.542Z,8.70
2018-02-13T11:42:56.381Z,8.10
2018-02-13T11:45:28.286Z,7.60
2018-02-13T11:47:59.180Z,7.32
2018-02-13T11:50:30.011Z,7.90
2018-02-13T11:53:00.925Z,7.10
2018-02-13T11:55:31.826Z,7.90
2018-02-13T11:58:03.725Z,7.43
2018-02-13T12:00:34.648Z,7.37
2018-02-13T12:03:05.475Z,7.80
2018-02-13T12:05:36.361Z,8.50
2018-02-13T12:08:07.314Z,8.73
2018-02-13T12:10:38.185Z,7.90
2018-02-13T12:13:11.130Z,7.27
2018-02-13T12:15:42.102Z,8.98
2018-02-13T12:18:12.949Z,10.27
2018-02-13T12:20:43.799Z,11.00
2018-02-13T12:23:14.710Z,9.50
2018-02-13T12:25:45.555Z,9.40
2018-02-13T12:28:16.397Z,8.27
2018-02-13T12:30:48.344Z,6.90
2018-02-13T12:33:19.211Z,6.20
2018-02-13T12:35:50.128Z,5.70
2018-02-13T12:38:21.077Z,4.67
2018-02-13T12:40:52.074Z,4.90
2018-02-13T12:43:22.979Z,4.60
2018-02-13T12:45:53.801Z,5.40
2018-02-13T12:48:24.681Z,4.83
2018-02-13T12:50:55.541Z,5.43
2018-02-13T12:53:26.443Z,6.23
2018-02-13T12:55:57.319Z,5.70
2018-02-13T12:58:28.342Z,5.63
2018-02-13T13:00:59.223Z,5.78
2018-02-13T13:03:30.076Z,5.60
2018-02-13T13:06:00.894Z,6.03
2018-02-13T13:08:31.837Z,5.33
2018-02-13T13:11:02.692Z,5.80
2018-02-13T13:13:33.589Z,4.17
2018-02-13T13:16:04.445Z,5.17
2018-02-13T13:18:35.426Z,5.87
2018-02-13T13:21:06.433Z,5.85
2018-02-13T13:23:37.309Z,5.65
2018-02-13T13:26:08.151Z,4.80
2018-02-13T13:28:40.132Z,4.07
2018-02-13T13:31:11.014Z,4.50
2018-02-13T13:33:41.893Z,4.60
2018-02-13T13:36:13.850Z,5.60
2018-02-13T13:38:44.690Z,3.60
2018-02-13T13:41:15.603Z,4.73
2018-02-13T13:43:46.560Z,4.87
2018-02-13T13:46:17.587Z,5.07
2018-02-13T13:48:49.510Z,4.45
2018-02-13T13:51:20.405Z,4.60
2018-02-13T13:53:51.621Z,3.60
2018-02-13T13:56:22.466Z,3.20
2018-02-13T13:58:53.362Z,3.33
2018-02-13T14:01:24.305Z,2.80
2018-02-13T14:03:55.143Z,2.87
2018-02-13T14:06:25.982Z,2.77
2018-02-13T14:08:56.823Z,3.20
2018-02-13T14:11:29.714Z,3.23
2018-02-13T14:14:00.564Z,3.60
2018-02-13T14:16:31.484Z,3.10
2018-02-13T14:19:03.267Z,3.47
2018-02-13T14:21:34.128Z,3.10
2018-02-13T14:24:06.057Z,3.80
2018-02-13T14:26:37.020Z,4.00
2018-02-13T14:29:07.986Z,4.40
2018-02-13T14:31:38.874Z,5.50
2018-02-13T14:34:09.896Z,3.53
2018-02-13T14:36:41.345Z,3.50
2018-02-13T14:39:12.313Z,4.07
2018-02-13T14:41:43.129Z,4.70
2018-02-13T14:44:13.959Z,4.60
2018-02-13T14:46:44.881Z,5.43
2018-02-13T14:49:17.742Z,5.00
2018-02-13T14:51:48.564Z,4.75
2018-02-13T14:54:19.401Z,3.67
2018-02-13T14:56:50.250Z,4.43
2018-02-13T14:59:21.118Z,5.10
2018-02-13T15:01:51.975Z,4.40
2018-02-13T15:04:22.848Z,4.47
2018-02-13T15:06:53.748Z,6.50
2018-02-13T15:09:24.639Z,6.10
2018-02-13T15:11:55.475Z,5.20
2018-02-13T15:14:27.516Z,4.93
2018-02-13T15:17:08.320Z,5.00
2018-02-13T15:19:39.975Z,5.20
2018-02-13T15:22:12.848Z,5.55
2018-02-13T15:24:43.907Z,4.87
2018-02-13T15:27:15.087Z,4.68
2018-02-13T15:29:46.267Z,3.55
2018-02-13T15:32:17.840Z,5.00
2018-02-13T15:34:48.886Z,4.70
2018-02-13T15:37:20.130Z,4.60
2018-02-13T15:39:55.218Z,4.87
2018-02-13T15:42:26.159Z,4.97
2018-02-13T15:44:57.029Z,4.32
2018-02-13T15:47:27.869Z,4.97
2018-02-13T15:50:05.694Z,5.40
2018-02-13T15:52:36.575Z,4.85
2018-02-13T15:55:07.481Z,6.17
2018-02-13T15:57:38.332Z,6.70
2018-02-13T16:00:09.270Z,5.43
2018-02-13T16:02:40.188Z,5.60
2018-02-13T16:05:11.154Z,5.10
2018-02-13T16:07:41.998Z,5.10
2018-02-13T16:10:12.925Z,5.07
2018-02-13T16:12:44.695Z,4.33
2018-02-13T16:15:15.621Z,4.22
2018-02-13T16:17:46.482Z,4.80
2018-02-13T16:20:17.347Z,4.17
2018-02-13T16:22:48.222Z,3.57
2018-02-13T16:25:19.217Z,4.30
2018-02-13T16:27:50.108Z,4.47
2018-02-13T16:30:20.992Z,4.83
2018-02-13T16:32:51.885Z,4.27
2018-02-13T16:35:22.757Z,4.57
2018-02-13T16:37:53.660Z,4.77
2018-02-13T16:40:24.606Z,5.00
2018-02-13T16:42:55.478Z,4.70
2018-02-13T16:45:26.421Z,4.00
2018-02-13T16:47:57.481Z,4.40
2018-02-13T16:50:30.410Z,4.05
2018-02-13T16:53:01.341Z,4.40
2018-02-13T16:55:32.256Z,4.27
2018-02-13T16:58:03.126Z,4.87
2018-02-13T17:00:33.989Z,4.63
2018-02-13T17:03:04.846Z,5.87
2018-02-13T17:05:37.707Z,4.70
2018-02-13T17:08:08.597Z,4.53
2018-02-13T17:10:39.487Z,4.40
2018-02-13T17:13:10.428Z,4.50
2018-02-13T17:15:41.265Z,4.60
2018-02-13T17:18:12.141Z,4.27
2018-02-13T17:20:42.996Z,4.87
2018-02-13T17:23:14.896Z,4.50
2018-02-13T17:25:45.700Z,4.35
2018-02-13T17:28:16.616Z,6.33
2018-02-13T17:30:47.540Z,6.37
2018-02-13T17:33:18.425Z,5.30
2018-02-13T17:35:49.386Z,5.80
2018-02-13T17:38:20.286Z,6.93
2018-02-13T17:40:51.128Z,6.67
2018-02-13T17:43:22.001Z,8.07
2018-02-13T17:45:52.816Z,6.87
2018-02-13T17:48:23.669Z,5.67
2018-02-13T17:50:54.479Z,7.10
2018-02-13T17:53:25.406Z,8.13
2018-02-13T17:55:56.274Z,9.03
2018-02-13T17:58:27.129Z,8.87
2018-02-13T18:00:57.960Z,8.40
2018-02-13T18:03:28.860Z,10.37
2018-02-13T18:05:59.795Z,9.10
2018-02-13T18:08:30.671Z,8.97
2018-02-13T18:11:01.474Z,10.67
2018-02-13T18:13:32.344Z,10.87
2018-02-13T18:16:03.179Z,9.00
2018-02-13T18:18:37.805Z,10.23
2018-02-13T18:21:08.632Z,9.10
2018-02-13T18:23:39.516Z,9.20
2018-02-13T18:26:10.351Z,11.03
2018-02-13T18:28:41.312Z,10.97
2018-02-13T18:31:12.162Z,8.60
2018-02-13T18:33:42.966Z,9.90
2018-02-13T18:36:13.783Z,8.60
2018-02-13T18:38:44.601Z,10.50
2018-02-13T18:41:15.439Z,11.20
2018-02-13T18:43:46.263Z,11.13
2018-02-13T18:46:17.149Z,11.43
2018-02-13T18:48:47.990Z,14.70
2018-02-13T18:51:18.822Z,14.73
2018-02-13T18:53:49.709Z,12.30
2018-02-13T18:56:20.602Z,11.13
2018-02-13T18:58:51.471Z,11.50
2018-02-13T19:01:22.366Z,11.20
2018-02-13T19:03:53.274Z,12.00
2018-02-13T19:06:24.148Z,10.57
2018-02-13T19:08:55.020Z,14.03
2018-02-13T19:11:25.863Z,14.33
2018-02-13T19:13:56.768Z,14.27
2018-02-13T19:16:27.662Z,12.13
2018-02-13T19:18:58.498Z,14.30
2018-02-13T19:21:29.493Z,13.60
2018-02-13T19:24:00.519Z,11.98
2018-02-13T19:26:31.368Z,10.63
2018-02-13T19:29:02.257Z,10.00
2018-02-13T19:31:33.268Z,10.20
2018-02-13T19:34:04.169Z,10.50
2018-02-13T19:36:35.121Z,10.47
2018-02-13T19:39:05.952Z,9.90
2018-02-13T19:41:36.845Z,9.77
2018-02-13T19:44:07.740Z,9.20
2018-02-13T19:46:38.619Z,10.07
2018-02-13T19:49:09.561Z,9.03
2018-02-13T19:51:40.397Z,9.43
2018-02-13T19:54:11.262Z,9.40
2018-02-13T19:56:42.137Z,10.10
2018-02-13T19:59:13.045Z,7.73
2018-02-13T20:01:43.917Z,8.17
2018-02-13T20:04:15.803Z,8.23
2018-02-13T20:06:46.644Z,7.60
2018-02-13T20:09:17.523Z,8.23
2018-02-13T20:11:48.361Z,7.87
2018-02-13T20:14:19.188Z,9.47
2018-02-13T20:16:50.084Z,10.63
2018-02-13T20:19:20.890Z,10.63
2018-02-13T20:21:51.681Z,9.23
2018-02-13T20:24:22.536Z,10.10
2018-02-13T20:26:53.385Z,10.50
2018-02-13T20:29:24.219Z,8.50
2018-02-13T20:31:55.038Z,9.10
2018-02-13T20:34:25.878Z,10.90
2018-02-13T20:36:56.717Z,8.77
2018-02-13T20:39:27.532Z,8.67
2018-02-13T20:41:58.374Z,9.80
2018-02-13T20:44:29.210Z,10.13
2018-02-13T20:47:00.080Z,9.70
2018-02-13T20:49:30.910Z,9.70
2018-02-13T20:52:01.746Z,9.03
2018-02-13T20:54:32.628Z,9.07
2018-02-13T20:57:03.524Z,8.67
2018-02-13T20:59:34.347Z,8.53
2018-02-13T21:02:05.163Z,9.20
2018-02-13T21:04:36.154Z,8.73
2018-02-13T21:07:07.017Z,8.25
2018-02-13T21:09:37.940Z,8.37
2018-02-13T21:12:08.754Z,9.73
2018-02-13T21:14:39.589Z,8.83
2018-02-13T21:17:10.363Z,9.73
2018-02-13T21:19:41.191Z,8.73
2018-02-13T21:22:12.017Z,10.13
2018-02-13T21:24:42.846Z,8.90
2018-02-13T21:27:13.678Z,9.10
2018-02-13T21:29:44.549Z,9.90
2018-02-13T21:32:15.381Z,9.20
2018-02-13T21:34:46.242Z,10.37
2018-02-13T21:37:17.077Z,10.30
2018-02-13T21:39:47.900Z,9.37
2018-02-13T21:42:18.780Z,10.67
2018-02-13T21:44:49.681Z,9.03
2018-02-13T21:47:20.525Z,10.50
2018-02-13T21:49:52.400Z,9.17
2018-02-13T21:52:23.381Z,9.35
2018-02-13T21:54:55.278Z,7.97
2018-02-13T21:57:27.160Z,8.82
2018-02-13T21:59:59.008Z,8.93
2018-02-13T22:02:29.845Z,9.60
2018-02-13T22:05:01.725Z,9.10
2018-02-13T22:07:32.562Z,8.73
2018-02-13T22:10:03.434Z,9.40
2018-02-13T22:12:34.248Z,8.93
2018-02-13T22:15:05.120Z,8.80
2018-02-13T22:17:36.016Z,8.47
2018-02-13T22:20:06.869Z,8.70
2018-02-13T22:22:37.730Z,9.23
2018-02-13T22:25:08.654Z,8.47
2018-02-13T22:27:39.629Z,9.23
2018-02-13T22:30:10.580Z,8.50
2018-02-13T22:32:42.542Z,8.97
2018-02-13T22:35:14.251Z,10.35
2018-02-13T22:37:45.094Z,8.52
2018-02-13T22:40:16.161Z,9.20
2018-02-13T22:42:47.020Z,9.52
2018-02-13T22:45:17.915Z,8.87
2018-02-13T22:47:48.758Z,8.87
2018-02-13T22:50:19.668Z,8.80
2018-02-13T22:52:50.632Z,9.07
2018-02-13T22:55:21.444Z,9.88
2018-02-13T22:57:52.269Z,8.60
2018-02-13T23:00:25.216Z,9.40
2018-02-13T23:02:56.065Z,9.57
2018-02-13T23:05:26.908Z,10.60
2018-02-13T23:07:57.821Z,8.40
2018-02-13T23:10:28.721Z,8.83
2018-02-13T23:12:59.601Z,8.90
2018-02-13T23:15:30.443Z,9.33
2018-02-13T23:18:01.271Z,8.80
2018-02-13T23:20:32.612Z,9.27
2018-02-13T23:23:03.473Z,9.43
2018-02-13T23:25:36.378Z,8.93
2018-02-13T23:28:20.888Z,7.78
2018-02-13T23:30:52.530Z,8.80
2018-02-13T23:33:23.441Z,9.40
2018-02-13T23:35:54.602Z,8.90
2018-02-13T23:38:25.650Z,9.73
2018-02-13T23:40:56.800Z,7.70
2018-02-13T23:46:05.698Z,8.43
2018-02-13T23:48:36.579Z,8.80
2018-02-13T23:51:08.056Z,8.60
2018-02-13T23:53:39.251Z,8.40
2018-02-13T23:56:10.354Z,9.30
2018-02-13T23:58:41.577Z,7.70
